sensor_id;sensor_type;location;lat;lon;timestamp;temperature;humidity
10062;DHT22;5070;52.382;5.270;2023-07-24T00:00:40;23.70;76.60
10062;DHT22;5070;52.382;5.270;2023-07-24T00:03:08;23.70;76.60
10062;DHT22;5070;52.382;5.270;2023-07-24T00:05:36;23.70;76.60
10062;DHT22;5070;52.382;5.270;2023-07-24T00:08:04;23.70;77.20
10062;DHT22;5070;52.382;5.270;2023-07-24T00:10:33;23.70;76.60
10062;DHT22;5070;52.382;5.270;2023-07-24T00:13:03;23.70;76.40
10062;DHT22;5070;52.382;5.270;2023-07-24T00:15:31;23.60;76.50
10062;DHT22;5070;52.382;5.270;2023-07-24T00:17:59;23.60;76.30
10062;DHT22;5070;52.382;5.270;2023-07-24T00:20:27;23.60;76.40
10062;DHT22;5070;52.382;5.270;2023-07-24T00:22:55;23.60;76.40
10062;DHT22;5070;52.382;5.270;2023-07-24T00:25:23;23.60;76.60
10062;DHT22;5070;52.382;5.270;2023-07-24T00:27:51;23.60;76.60
10062;DHT22;5070;52.382;5.270;2023-07-24T00:30:21;23.60;76.70
10062;DHT22;5070;52.382;5.270;2023-07-24T00:32:49;23.60;76.70
10062;DHT22;5070;52.382;5.270;2023-07-24T00:35:18;23.60;77.50
10062;DHT22;5070;52.382;5.270;2023-07-24T00:37:46;23.60;76.80
10062;DHT22;5070;52.382;5.270;2023-07-24T00:40:14;23.60;76.90
10062;DHT22;5070;52.382;5.270;2023-07-24T00:42:46;23.60;76.80
10062;DHT22;5070;52.382;5.270;2023-07-24T00:45:15;23.60;76.60
10062;DHT22;5070;52.382;5.270;2023-07-24T00:47:45;23.60;76.50
10062;DHT22;5070;52.382;5.270;2023-07-24T00:50:13;23.60;76.60
10062;DHT22;5070;52.382;5.270;2023-07-24T00:52:42;23.60;76.70
10062;DHT22;5070;52.382;5.270;2023-07-24T00:55:13;23.60;77.20
10062;DHT22;5070;52.382;5.270;2023-07-24T00:57:43;23.60;76.50
10062;DHT22;5070;52.382;5.270;2023-07-24T01:00:12;23.60;76.50
10062;DHT22;5070;52.382;5.270;2023-07-24T01:02:40;23.60;76.40
10062;DHT22;5070;52.382;5.270;2023-07-24T01:05:13;23.60;76.50
10062;DHT22;5070;52.382;5.270;2023-07-24T01:07:41;23.60;76.50
10062;DHT22;5070;52.382;5.270;2023-07-24T01:10:10;23.60;76.50
10062;DHT22;5070;52.382;5.270;2023-07-24T01:12:44;23.60;76.60
10062;DHT22;5070;52.382;5.270;2023-07-24T01:15:16;23.60;76.60
10062;DHT22;5070;52.382;5.270;2023-07-24T01:17:47;23.60;76.60
10062;DHT22;5070;52.382;5.270;2023-07-24T01:20:17;23.60;76.50
10062;DHT22;5070;52.382;5.270;2023-07-24T01:22:57;23.50;76.40
10062;DHT22;5070;52.382;5.270;2023-07-24T01:25:31;23.50;76.40
10062;DHT22;5070;52.382;5.270;2023-07-24T01:28:07;23.50;76.70
10062;DHT22;5070;52.382;5.270;2023-07-24T01:30:35;23.50;76.60
10062;DHT22;5070;52.382;5.270;2023-07-24T01:33:04;23.50;76.70
10062;DHT22;5070;52.382;5.270;2023-07-24T01:35:32;23.50;76.50
10062;DHT22;5070;52.382;5.270;2023-07-24T01:38:00;23.50;76.40
10062;DHT22;5070;52.382;5.270;2023-07-24T01:40:31;23.50;76.50
10062;DHT22;5070;52.382;5.270;2023-07-24T01:42:59;23.50;76.40
10062;DHT22;5070;52.382;5.270;2023-07-24T01:45:29;23.50;76.40
10062;DHT22;5070;52.382;5.270;2023-07-24T01:47:57;23.50;76.40
10062;DHT22;5070;52.382;5.270;2023-07-24T01:50:26;23.50;76.50
10062;DHT22;5070;52.382;5.270;2023-07-24T01:52:54;23.50;76.30
10062;DHT22;5070;52.382;5.270;2023-07-24T01:55:23;23.50;76.40
10062;DHT22;5070;52.382;5.270;2023-07-24T01:57:51;23.50;76.40
10062;DHT22;5070;52.382;5.270;2023-07-24T02:00:19;23.50;76.40
10062;DHT22;5070;52.382;5.270;2023-07-24T02:02:58;23.50;76.30
10062;DHT22;5070;52.382;5.270;2023-07-24T02:05:26;23.50;76.30
10062;DHT22;5070;52.382;5.270;2023-07-24T02:07:56;23.50;76.20
10062;DHT22;5070;52.382;5.270;2023-07-24T02:10:24;23.50;76.30
10062;DHT22;5070;52.382;5.270;2023-07-24T02:12:52;23.50;76.30
10062;DHT22;5070;52.382;5.270;2023-07-24T02:15:21;23.50;76.20
10062;DHT22;5070;52.382;5.270;2023-07-24T02:17:49;23.50;76.20
10062;DHT22;5070;52.382;5.270;2023-07-24T02:20:18;23.50;76.20
10062;DHT22;5070;52.382;5.270;2023-07-24T02:22:46;23.50;76.20
10062;DHT22;5070;52.382;5.270;2023-07-24T02:25:15;23.50;76.20
10062;DHT22;5070;52.382;5.270;2023-07-24T02:27:43;23.50;76.20
10062;DHT22;5070;52.382;5.270;2023-07-24T02:30:11;23.50;76.40
10062;DHT22;5070;52.382;5.270;2023-07-24T02:32:39;23.50;76.30
10062;DHT22;5070;52.382;5.270;2023-07-24T02:35:08;23.50;76.40
10062;DHT22;5070;52.382;5.270;2023-07-24T02:37:38;23.40;76.20
10062;DHT22;5070;52.382;5.270;2023-07-24T02:40:11;23.50;76.20
10062;DHT22;5070;52.382;5.270;2023-07-24T02:42:39;23.50;76.30
10062;DHT22;5070;52.382;5.270;2023-07-24T02:45:08;23.50;76.40
10062;DHT22;5070;52.382;5.270;2023-07-24T02:47:38;23.50;76.40
10062;DHT22;5070;52.382;5.270;2023-07-24T02:50:06;23.40;76.40
10062;DHT22;5070;52.382;5.270;2023-07-24T02:52:34;23.40;76.40
10062;DHT22;5070;52.382;5.270;2023-07-24T02:55:05;23.50;76.50
10062;DHT22;5070;52.382;5.270;2023-07-24T02:57:33;23.40;76.30
10062;DHT22;5070;52.382;5.270;2023-07-24T03:00:01;23.40;76.50
10062;DHT22;5070;52.382;5.270;2023-07-24T03:02:29;23.40;76.60
10062;DHT22;5070;52.382;5.270;2023-07-24T03:04:58;23.40;76.40
10062;DHT22;5070;52.382;5.270;2023-07-24T03:07:26;23.40;76.40
10062;DHT22;5070;52.382;5.270;2023-07-24T03:09:54;23.40;76.40
10062;DHT22;5070;52.382;5.270;2023-07-24T03:12:23;23.40;76.40
10062;DHT22;5070;52.382;5.270;2023-07-24T03:14:51;23.40;76.20
10062;DHT22;5070;52.382;5.270;2023-07-24T03:17:19;23.40;76.50
10062;DHT22;5070;52.382;5.270;2023-07-24T03:19:48;23.40;76.40
10062;DHT22;5070;52.382;5.270;2023-07-24T03:22:16;23.40;76.20
10062;DHT22;5070;52.382;5.270;2023-07-24T03:24:44;23.40;76.20
10062;DHT22;5070;52.382;5.270;2023-07-24T03:27:12;23.40;77.20
10062;DHT22;5070;52.382;5.270;2023-07-24T03:29:42;23.40;76.20
10062;DHT22;5070;52.382;5.270;2023-07-24T03:32:10;23.40;76.20
10062;DHT22;5070;52.382;5.270;2023-07-24T03:34:38;23.40;76.40
10062;DHT22;5070;52.382;5.270;2023-07-24T03:37:06;23.40;76.50
10062;DHT22;5070;52.382;5.270;2023-07-24T03:39:34;23.40;76.50
10062;DHT22;5070;52.382;5.270;2023-07-24T03:42:03;23.40;76.50
10062;DHT22;5070;52.382;5.270;2023-07-24T03:44:32;23.40;76.50
10062;DHT22;5070;52.382;5.270;2023-07-24T03:47:01;23.40;76.50
10062;DHT22;5070;52.382;5.270;2023-07-24T03:49:29;23.40;76.40
10062;DHT22;5070;52.382;5.270;2023-07-24T03:51:57;23.40;76.40
10062;DHT22;5070;52.382;5.270;2023-07-24T03:54:25;23.40;76.20
10062;DHT22;5070;52.382;5.270;2023-07-24T03:56:53;23.40;76.30
10062;DHT22;5070;52.382;5.270;2023-07-24T03:59:21;23.40;76.40
10062;DHT22;5070;52.382;5.270;2023-07-24T04:01:49;23.40;76.40
10062;DHT22;5070;52.382;5.270;2023-07-24T04:04:19;23.40;76.50
10062;DHT22;5070;52.382;5.270;2023-07-24T04:06:47;23.40;76.50
10062;DHT22;5070;52.382;5.270;2023-07-24T04:09:15;23.30;76.50
10062;DHT22;5070;52.382;5.270;2023-07-24T04:11:44;23.30;76.50
10062;DHT22;5070;52.382;5.270;2023-07-24T04:14:12;23.30;76.70
10062;DHT22;5070;52.382;5.270;2023-07-24T04:16:40;23.30;76.50
10062;DHT22;5070;52.382;5.270;2023-07-24T04:19:08;23.40;76.50
10062;DHT22;5070;52.382;5.270;2023-07-24T04:21:37;23.30;76.50
10062;DHT22;5070;52.382;5.270;2023-07-24T04:24:06;23.30;76.50
10062;DHT22;5070;52.382;5.270;2023-07-24T04:26:34;23.30;76.50
10062;DHT22;5070;52.382;5.270;2023-07-24T04:29:04;23.30;76.50
10062;DHT22;5070;52.382;5.270;2023-07-24T04:31:32;23.30;76.50
10062;DHT22;5070;52.382;5.270;2023-07-24T04:34:00;23.30;76.50
10062;DHT22;5070;52.382;5.270;2023-07-24T04:36:28;23.30;76.50
10062;DHT22;5070;52.382;5.270;2023-07-24T04:38:58;23.30;76.50
10062;DHT22;5070;52.382;5.270;2023-07-24T04:41:26;23.30;77.10
10062;DHT22;5070;52.382;5.270;2023-07-24T04:43:54;23.30;76.40
10062;DHT22;5070;52.382;5.270;2023-07-24T04:46:22;23.30;76.50
10062;DHT22;5070;52.382;5.270;2023-07-24T04:48:50;23.30;76.60
10062;DHT22;5070;52.382;5.270;2023-07-24T04:51:18;23.30;76.60
10062;DHT22;5070;52.382;5.270;2023-07-24T04:53:46;23.30;76.70
10062;DHT22;5070;52.382;5.270;2023-07-24T04:56:15;23.30;76.60
10062;DHT22;5070;52.382;5.270;2023-07-24T04:58:43;23.30;76.50
10062;DHT22;5070;52.382;5.270;2023-07-24T05:01:11;23.30;76.40
10062;DHT22;5070;52.382;5.270;2023-07-24T05:03:39;23.30;76.50
10062;DHT22;5070;52.382;5.270;2023-07-24T05:06:07;23.30;76.60
10062;DHT22;5070;52.382;5.270;2023-07-24T05:08:35;23.30;76.40
10062;DHT22;5070;52.382;5.270;2023-07-24T05:11:04;23.30;76.40
10062;DHT22;5070;52.382;5.270;2023-07-24T05:13:33;23.30;76.40
10062;DHT22;5070;52.382;5.270;2023-07-24T05:16:01;23.30;76.50
10062;DHT22;5070;52.382;5.270;2023-07-24T05:18:29;23.30;76.40
10062;DHT22;5070;52.382;5.270;2023-07-24T05:20:57;23.30;76.40
10062;DHT22;5070;52.382;5.270;2023-07-24T05:23:25;23.30;76.50
10062;DHT22;5070;52.382;5.270;2023-07-24T05:25:57;23.30;76.70
10062;DHT22;5070;52.382;5.270;2023-07-24T05:28:25;23.30;76.50
10062;DHT22;5070;52.382;5.270;2023-07-24T05:30:55;23.30;76.60
10062;DHT22;5070;52.382;5.270;2023-07-24T05:33:23;23.30;76.50
10062;DHT22;5070;52.382;5.270;2023-07-24T05:35:51;23.30;76.70
10062;DHT22;5070;52.382;5.270;2023-07-24T05:38:19;23.30;76.80
10062;DHT22;5070;52.382;5.270;2023-07-24T05:40:54;23.30;76.80
10062;DHT22;5070;52.382;5.270;2023-07-24T05:43:22;23.30;76.70
10062;DHT22;5070;52.382;5.270;2023-07-24T05:45:50;23.30;76.70
10062;DHT22;5070;52.382;5.270;2023-07-24T05:48:20;23.30;76.70
10062;DHT22;5070;52.382;5.270;2023-07-24T05:50:48;23.30;76.70
10062;DHT22;5070;52.382;5.270;2023-07-24T05:53:17;23.30;76.70
10062;DHT22;5070;52.382;5.270;2023-07-24T05:55:45;23.30;76.70
10062;DHT22;5070;52.382;5.270;2023-07-24T05:58:14;23.30;76.70
10062;DHT22;5070;52.382;5.270;2023-07-24T06:00:42;23.40;76.80
10062;DHT22;5070;52.382;5.270;2023-07-24T06:03:10;23.30;76.80
10062;DHT22;5070;52.382;5.270;2023-07-24T06:05:39;23.30;76.70
10062;DHT22;5070;52.382;5.270;2023-07-24T06:08:07;23.40;76.70
10062;DHT22;5070;52.382;5.270;2023-07-24T06:10:37;23.40;76.80
10062;DHT22;5070;52.382;5.270;2023-07-24T06:13:05;23.40;76.90
10062;DHT22;5070;52.382;5.270;2023-07-24T06:15:33;23.40;76.70
10062;DHT22;5070;52.382;5.270;2023-07-24T06:18:01;23.40;76.80
10062;DHT22;5070;52.382;5.270;2023-07-24T06:20:29;23.40;76.50
10062;DHT22;5070;52.382;5.270;2023-07-24T06:22:59;23.40;76.80
10062;DHT22;5070;52.382;5.270;2023-07-24T06:25:27;23.40;77.00
10062;DHT22;5070;52.382;5.270;2023-07-24T06:27:55;23.40;77.10
10062;DHT22;5070;52.382;5.270;2023-07-24T06:30:23;23.40;77.00
10062;DHT22;5070;52.382;5.270;2023-07-24T06:32:51;23.40;77.10
10062;DHT22;5070;52.382;5.270;2023-07-24T06:35:20;23.40;77.20
10062;DHT22;5070;52.382;5.270;2023-07-24T06:37:51;23.40;77.40
10062;DHT22;5070;52.382;5.270;2023-07-24T06:40:20;23.40;77.90
10062;DHT22;5070;52.382;5.270;2023-07-24T06:42:48;23.40;77.80
10062;DHT22;5070;52.382;5.270;2023-07-24T06:45:17;23.40;78.20
10062;DHT22;5070;52.382;5.270;2023-07-24T06:47:45;23.40;78.10
10062;DHT22;5070;52.382;5.270;2023-07-24T06:50:13;23.40;78.10
10062;DHT22;5070;52.382;5.270;2023-07-24T06:52:41;23.40;78.20
10062;DHT22;5070;52.382;5.270;2023-07-24T06:55:13;23.40;78.10
10062;DHT22;5070;52.382;5.270;2023-07-24T06:57:45;23.40;78.30
10062;DHT22;5070;52.382;5.270;2023-07-24T07:00:14;23.50;79.00
10062;DHT22;5070;52.382;5.270;2023-07-24T07:02:44;23.50;78.60
10062;DHT22;5070;52.382;5.270;2023-07-24T07:05:12;23.50;78.50
10062;DHT22;5070;52.382;5.270;2023-07-24T07:07:40;23.50;78.20
10062;DHT22;5070;52.382;5.270;2023-07-24T07:10:08;23.50;78.50
10062;DHT22;5070;52.382;5.270;2023-07-24T07:12:36;23.50;78.70
10062;DHT22;5070;52.382;5.270;2023-07-24T07:15:07;23.50;78.70
10062;DHT22;5070;52.382;5.270;2023-07-24T07:17:35;23.50;78.90
10062;DHT22;5070;52.382;5.270;2023-07-24T07:20:04;23.50;78.80
10062;DHT22;5070;52.382;5.270;2023-07-24T07:22:32;23.50;78.90
10062;DHT22;5070;52.382;5.270;2023-07-24T07:25:01;23.50;78.90
10062;DHT22;5070;52.382;5.270;2023-07-24T07:27:29;23.50;79.10
10062;DHT22;5070;52.382;5.270;2023-07-24T07:29:57;23.50;79.10
10062;DHT22;5070;52.382;5.270;2023-07-24T07:32:26;23.50;79.30
10062;DHT22;5070;52.382;5.270;2023-07-24T07:34:54;23.50;79.20
10062;DHT22;5070;52.382;5.270;2023-07-24T07:37:22;23.50;79.20
10062;DHT22;5070;52.382;5.270;2023-07-24T07:39:50;23.50;78.20
10062;DHT22;5070;52.382;5.270;2023-07-24T07:42:18;23.60;79.20
10062;DHT22;5070;52.382;5.270;2023-07-24T07:44:46;23.60;79.00
10062;DHT22;5070;52.382;5.270;2023-07-24T07:47:14;23.60;78.40
10062;DHT22;5070;52.382;5.270;2023-07-24T07:49:44;23.70;78.90
10062;DHT22;5070;52.382;5.270;2023-07-24T07:52:12;23.70;78.50
10062;DHT22;5070;52.382;5.270;2023-07-24T07:54:46;23.70;78.40
10062;DHT22;5070;52.382;5.270;2023-07-24T07:57:14;23.70;79.30
10062;DHT22;5070;52.382;5.270;2023-07-24T07:59:43;23.70;79.50
10062;DHT22;5070;52.382;5.270;2023-07-24T08:02:11;23.70;79.80
10062;DHT22;5070;52.382;5.270;2023-07-24T08:04:39;23.70;79.80
10062;DHT22;5070;52.382;5.270;2023-07-24T08:07:08;23.70;79.40
10062;DHT22;5070;52.382;5.270;2023-07-24T08:09:36;23.80;79.90
10062;DHT22;5070;52.382;5.270;2023-07-24T08:12:05;23.80;79.70
10062;DHT22;5070;52.382;5.270;2023-07-24T08:14:34;23.80;80.00
10062;DHT22;5070;52.382;5.270;2023-07-24T08:17:03;23.80;79.80
10062;DHT22;5070;52.382;5.270;2023-07-24T08:19:31;23.90;79.60
10062;DHT22;5070;52.382;5.270;2023-07-24T08:21:59;23.90;79.90
10062;DHT22;5070;52.382;5.270;2023-07-24T08:24:28;23.90;79.80
10062;DHT22;5070;52.382;5.270;2023-07-24T08:26:57;23.90;79.60
10062;DHT22;5070;52.382;5.270;2023-07-24T08:29:25;23.90;79.40
10062;DHT22;5070;52.382;5.270;2023-07-24T08:31:53;24.00;80.10
10062;DHT22;5070;52.382;5.270;2023-07-24T08:34:22;24.00;79.90
10062;DHT22;5070;52.382;5.270;2023-07-24T08:36:50;24.00;79.80
10062;DHT22;5070;52.382;5.270;2023-07-24T08:39:18;24.00;79.30
10062;DHT22;5070;52.382;5.270;2023-07-24T08:41:48;24.00;79.40
10062;DHT22;5070;52.382;5.270;2023-07-24T08:44:16;24.00;79.30
10062;DHT22;5070;52.382;5.270;2023-07-24T08:46:44;24.00;79.40
10062;DHT22;5070;52.382;5.270;2023-07-24T08:49:14;24.10;79.50
10062;DHT22;5070;52.382;5.270;2023-07-24T08:51:44;24.10;79.70
10062;DHT22;5070;52.382;5.270;2023-07-24T08:54:14;24.10;78.40
10062;DHT22;5070;52.382;5.270;2023-07-24T08:56:43;24.10;79.30
10062;DHT22;5070;52.382;5.270;2023-07-24T08:59:15;24.10;79.50
10062;DHT22;5070;52.382;5.270;2023-07-24T09:01:43;24.10;79.30
10062;DHT22;5070;52.382;5.270;2023-07-24T09:04:13;24.10;79.30
10062;DHT22;5070;52.382;5.270;2023-07-24T09:06:41;24.10;79.00
10062;DHT22;5070;52.382;5.270;2023-07-24T09:09:12;24.10;79.90
10062;DHT22;5070;52.382;5.270;2023-07-24T09:11:48;24.20;79.70
10062;DHT22;5070;52.382;5.270;2023-07-24T09:14:22;24.20;79.10
10062;DHT22;5070;52.382;5.270;2023-07-24T09:17:01;24.20;79.40
10062;DHT22;5070;52.382;5.270;2023-07-24T09:19:29;24.20;80.00
10062;DHT22;5070;52.382;5.270;2023-07-24T09:22:08;24.20;79.10
10062;DHT22;5070;52.382;5.270;2023-07-24T09:24:48;24.20;78.70
10062;DHT22;5070;52.382;5.270;2023-07-24T09:27:17;24.20;79.10
10062;DHT22;5070;52.382;5.270;2023-07-24T09:29:46;24.20;79.50
10062;DHT22;5070;52.382;5.270;2023-07-24T09:32:21;24.20;78.10
10062;DHT22;5070;52.382;5.270;2023-07-24T09:34:51;24.20;79.30
10062;DHT22;5070;52.382;5.270;2023-07-24T09:37:25;24.20;78.90
10062;DHT22;5070;52.382;5.270;2023-07-24T09:39:53;24.20;79.80
10062;DHT22;5070;52.382;5.270;2023-07-24T09:42:29;24.20;80.40
10062;DHT22;5070;52.382;5.270;2023-07-24T09:44:59;24.20;80.80
10062;DHT22;5070;52.382;5.270;2023-07-24T09:47:27;24.20;81.30
10062;DHT22;5070;52.382;5.270;2023-07-24T09:50:15;24.20;81.80
10062;DHT22;5070;52.382;5.270;2023-07-24T09:52:44;24.20;81.90
10062;DHT22;5070;52.382;5.270;2023-07-24T09:55:19;24.20;81.40
10062;DHT22;5070;52.382;5.270;2023-07-24T09:57:52;24.20;82.30
10062;DHT22;5070;52.382;5.270;2023-07-24T10:00:23;24.20;82.20
10062;DHT22;5070;52.382;5.270;2023-07-24T10:02:52;24.20;82.50
10062;DHT22;5070;52.382;5.270;2023-07-24T10:05:20;24.30;81.80
10062;DHT22;5070;52.382;5.270;2023-07-24T10:07:49;24.30;80.50
10062;DHT22;5070;52.382;5.270;2023-07-24T10:10:18;24.30;80.00
10062;DHT22;5070;52.382;5.270;2023-07-24T10:12:48;24.30;79.10
10062;DHT22;5070;52.382;5.270;2023-07-24T10:15:16;24.30;80.40
10062;DHT22;5070;52.382;5.270;2023-07-24T10:17:47;24.30;79.80
10062;DHT22;5070;52.382;5.270;2023-07-24T10:20:18;24.30;81.10
10062;DHT22;5070;52.382;5.270;2023-07-24T10:22:46;24.40;78.30
10062;DHT22;5070;52.382;5.270;2023-07-24T10:25:14;24.40;79.00
10062;DHT22;5070;52.382;5.270;2023-07-24T10:27:43;24.40;79.00
10062;DHT22;5070;52.382;5.270;2023-07-24T10:30:13;24.30;80.50
10062;DHT22;5070;52.382;5.270;2023-07-24T10:33:08;24.40;81.00
10062;DHT22;5070;52.382;5.270;2023-07-24T10:35:41;24.40;79.50
10062;DHT22;5070;52.382;5.270;2023-07-24T10:38:10;24.40;79.50
10062;DHT22;5070;52.382;5.270;2023-07-24T10:40:39;24.40;79.70
10062;DHT22;5070;52.382;5.270;2023-07-24T10:43:08;24.40;80.60
10062;DHT22;5070;52.382;5.270;2023-07-24T10:45:47;24.40;80.50
10062;DHT22;5070;52.382;5.270;2023-07-24T10:48:18;24.40;80.90
10062;DHT22;5070;52.382;5.270;2023-07-24T10:50:47;24.40;80.80
10062;DHT22;5070;52.382;5.270;2023-07-24T10:53:21;24.40;80.20
10062;DHT22;5070;52.382;5.270;2023-07-24T10:55:51;24.40;80.40
10062;DHT22;5070;52.382;5.270;2023-07-24T10:58:19;24.50;80.10
10062;DHT22;5070;52.382;5.270;2023-07-24T11:00:47;24.50;80.40
10062;DHT22;5070;52.382;5.270;2023-07-24T11:03:17;24.50;79.90
10062;DHT22;5070;52.382;5.270;2023-07-24T11:05:46;24.50;80.30
10062;DHT22;5070;52.382;5.270;2023-07-24T11:08:16;24.50;79.90
10062;DHT22;5070;52.382;5.270;2023-07-24T11:10:45;24.50;80.40
10062;DHT22;5070;52.382;5.270;2023-07-24T11:13:14;24.50;80.50
10062;DHT22;5070;52.382;5.270;2023-07-24T11:15:43;24.50;81.30
10062;DHT22;5070;52.382;5.270;2023-07-24T11:18:11;24.50;80.20
10062;DHT22;5070;52.382;5.270;2023-07-24T11:20:47;24.50;80.40
10062;DHT22;5070;52.382;5.270;2023-07-24T11:23:15;24.50;78.30
10062;DHT22;5070;52.382;5.270;2023-07-24T11:25:44;24.50;78.60
10062;DHT22;5070;52.382;5.270;2023-07-24T11:28:14;24.50;78.20
10062;DHT22;5070;52.382;5.270;2023-07-24T11:30:42;24.50;79.30
10062;DHT22;5070;52.382;5.270;2023-07-24T11:33:11;24.50;79.70
10062;DHT22;5070;52.382;5.270;2023-07-24T11:35:44;24.50;80.10
10062;DHT22;5070;52.382;5.270;2023-07-24T11:38:13;24.50;81.40
10062;DHT22;5070;52.382;5.270;2023-07-24T11:40:43;24.50;81.00
10062;DHT22;5070;52.382;5.270;2023-07-24T11:43:16;24.50;81.00
10062;DHT22;5070;52.382;5.270;2023-07-24T11:45:46;24.50;81.00
10062;DHT22;5070;52.382;5.270;2023-07-24T11:48:15;24.50;81.00
10062;DHT22;5070;52.382;5.270;2023-07-24T11:50:46;24.60;79.90
10062;DHT22;5070;52.382;5.270;2023-07-24T11:53:22;24.60;80.00
10062;DHT22;5070;52.382;5.270;2023-07-24T11:55:51;24.60;80.10
10062;DHT22;5070;52.382;5.270;2023-07-24T11:58:19;24.60;80.80
10062;DHT22;5070;52.382;5.270;2023-07-24T12:00:48;24.60;80.60
10062;DHT22;5070;52.382;5.270;2023-07-24T12:03:21;24.60;81.30
10062;DHT22;5070;52.382;5.270;2023-07-24T12:05:51;24.60;81.40
10062;DHT22;5070;52.382;5.270;2023-07-24T12:08:20;24.60;82.30
10062;DHT22;5070;52.382;5.270;2023-07-24T12:10:50;24.60;80.90
10062;DHT22;5070;52.382;5.270;2023-07-24T12:13:18;24.60;80.90
10062;DHT22;5070;52.382;5.270;2023-07-24T12:15:48;24.60;80.70
10062;DHT22;5070;52.382;5.270;2023-07-24T12:18:16;24.60;80.40
10062;DHT22;5070;52.382;5.270;2023-07-24T12:20:45;24.60;80.60
10062;DHT22;5070;52.382;5.270;2023-07-24T12:23:16;24.60;80.60
10062;DHT22;5070;52.382;5.270;2023-07-24T12:25:44;24.60;80.60
10062;DHT22;5070;52.382;5.270;2023-07-24T12:28:13;24.60;80.20
10062;DHT22;5070;52.382;5.270;2023-07-24T12:30:41;24.60;79.30
10062;DHT22;5070;52.382;5.270;2023-07-24T12:33:09;24.60;79.40
10062;DHT22;5070;52.382;5.270;2023-07-24T12:35:37;24.60;79.50
10062;DHT22;5070;52.382;5.270;2023-07-24T12:38:05;24.70;79.30
10062;DHT22;5070;52.382;5.270;2023-07-24T12:40:34;24.70;79.20
10062;DHT22;5070;52.382;5.270;2023-07-24T12:43:02;24.70;78.80
10062;DHT22;5070;52.382;5.270;2023-07-24T12:45:31;24.70;78.60
10062;DHT22;5070;52.382;5.270;2023-07-24T12:47:59;24.70;78.80
10062;DHT22;5070;52.382;5.270;2023-07-24T12:50:27;24.70;79.30
10062;DHT22;5070;52.382;5.270;2023-07-24T12:52:57;24.70;78.20
10062;DHT22;5070;52.382;5.270;2023-07-24T12:55:29;24.70;79.20
10062;DHT22;5070;52.382;5.270;2023-07-24T12:57:58;24.70;78.80
10062;DHT22;5070;52.382;5.270;2023-07-24T13:00:28;24.70;78.80
10062;DHT22;5070;52.382;5.270;2023-07-24T13:02:58;24.70;78.70
10062;DHT22;5070;52.382;5.270;2023-07-24T13:05:27;24.70;78.60
10062;DHT22;5070;52.382;5.270;2023-07-24T13:07:56;24.70;79.50
10062;DHT22;5070;52.382;5.270;2023-07-24T13:10:24;24.70;78.80
10062;DHT22;5070;52.382;5.270;2023-07-24T13:12:52;24.70;78.80
10062;DHT22;5070;52.382;5.270;2023-07-24T13:15:21;24.70;78.60
10062;DHT22;5070;52.382;5.270;2023-07-24T13:17:49;24.70;78.00
10062;DHT22;5070;52.382;5.270;2023-07-24T13:20:17;24.70;78.20
10062;DHT22;5070;52.382;5.270;2023-07-24T13:22:46;24.80;78.40
10062;DHT22;5070;52.382;5.270;2023-07-24T13:25:15;24.80;78.50
10062;DHT22;5070;52.382;5.270;2023-07-24T13:27:43;24.80;78.10
10062;DHT22;5070;52.382;5.270;2023-07-24T13:30:11;24.80;78.10
10062;DHT22;5070;52.382;5.270;2023-07-24T13:32:41;24.80;77.80
10062;DHT22;5070;52.382;5.270;2023-07-24T13:35:09;24.80;78.00
10062;DHT22;5070;52.382;5.270;2023-07-24T13:37:37;24.80;77.80
10062;DHT22;5070;52.382;5.270;2023-07-24T13:40:07;24.80;77.90
10062;DHT22;5070;52.382;5.270;2023-07-24T13:42:35;24.80;77.90
10062;DHT22;5070;52.382;5.270;2023-07-24T13:45:03;24.80;77.90
10062;DHT22;5070;52.382;5.270;2023-07-24T13:47:32;24.80;78.30
10062;DHT22;5070;52.382;5.270;2023-07-24T13:50:01;24.90;78.00
10062;DHT22;5070;52.382;5.270;2023-07-24T13:52:30;24.90;77.90
10062;DHT22;5070;52.382;5.270;2023-07-24T13:54:58;24.90;78.00
10062;DHT22;5070;52.382;5.270;2023-07-24T13:57:27;24.90;77.90
10062;DHT22;5070;52.382;5.270;2023-07-24T13:59:55;24.90;78.00
10062;DHT22;5070;52.382;5.270;2023-07-24T14:02:23;24.90;78.20
10062;DHT22;5070;52.382;5.270;2023-07-24T14:04:52;24.90;78.30
10062;DHT22;5070;52.382;5.270;2023-07-24T14:07:22;24.90;78.40
10062;DHT22;5070;52.382;5.270;2023-07-24T14:09:50;24.90;79.20
10062;DHT22;5070;52.382;5.270;2023-07-24T14:12:18;24.90;79.50
10062;DHT22;5070;52.382;5.270;2023-07-24T14:14:46;24.90;78.70
10062;DHT22;5070;52.382;5.270;2023-07-24T14:17:14;24.90;79.50
10062;DHT22;5070;52.382;5.270;2023-07-24T14:19:42;24.90;78.70
10062;DHT22;5070;52.382;5.270;2023-07-24T14:22:10;24.90;79.10
10062;DHT22;5070;52.382;5.270;2023-07-24T14:24:40;24.90;78.70
10062;DHT22;5070;52.382;5.270;2023-07-24T14:27:08;24.90;78.50
10062;DHT22;5070;52.382;5.270;2023-07-24T14:29:36;24.90;78.60
10062;DHT22;5070;52.382;5.270;2023-07-24T14:32:05;24.90;78.90
10062;DHT22;5070;52.382;5.270;2023-07-24T14:34:34;24.90;78.40
10062;DHT22;5070;52.382;5.270;2023-07-24T14:37:02;25.00;78.60
10062;DHT22;5070;52.382;5.270;2023-07-24T14:39:30;25.00;78.20
10062;DHT22;5070;52.382;5.270;2023-07-24T14:41:59;25.00;78.10
10062;DHT22;5070;52.382;5.270;2023-07-24T14:44:27;25.00;78.80
10062;DHT22;5070;52.382;5.270;2023-07-24T14:46:55;25.00;78.30
10062;DHT22;5070;52.382;5.270;2023-07-24T14:49:23;25.00;78.10
10062;DHT22;5070;52.382;5.270;2023-07-24T14:51:51;25.00;78.30
10062;DHT22;5070;52.382;5.270;2023-07-24T14:54:19;25.00;78.60
10062;DHT22;5070;52.382;5.270;2023-07-24T14:56:47;25.00;78.60
10062;DHT22;5070;52.382;5.270;2023-07-24T14:59:29;25.00;78.80
10062;DHT22;5070;52.382;5.270;2023-07-24T15:01:57;25.00;78.80
10062;DHT22;5070;52.382;5.270;2023-07-24T15:04:25;25.00;79.50
10062;DHT22;5070;52.382;5.270;2023-07-24T15:06:53;25.00;80.20
10062;DHT22;5070;52.382;5.270;2023-07-24T15:09:21;25.00;80.00
10062;DHT22;5070;52.382;5.270;2023-07-24T15:11:49;25.00;79.90
10062;DHT22;5070;52.382;5.270;2023-07-24T15:14:17;24.90;80.00
10062;DHT22;5070;52.382;5.270;2023-07-24T15:16:47;25.00;79.80
10062;DHT22;5070;52.382;5.270;2023-07-24T15:19:15;25.00;80.20
10062;DHT22;5070;52.382;5.270;2023-07-24T15:21:43;25.00;79.90
10062;DHT22;5070;52.382;5.270;2023-07-24T15:24:11;24.90;80.10
10062;DHT22;5070;52.382;5.270;2023-07-24T15:26:39;24.90;80.00
10062;DHT22;5070;52.382;5.270;2023-07-24T15:29:07;24.90;79.80
10062;DHT22;5070;52.382;5.270;2023-07-24T15:31:35;24.90;79.30
10062;DHT22;5070;52.382;5.270;2023-07-24T15:34:05;24.90;78.70
10062;DHT22;5070;52.382;5.270;2023-07-24T15:36:34;24.90;78.10
10062;DHT22;5070;52.382;5.270;2023-07-24T15:39:04;24.90;77.30
10062;DHT22;5070;52.382;5.270;2023-07-24T15:41:32;24.90;76.80
10062;DHT22;5070;52.382;5.270;2023-07-24T15:44:00;24.80;76.70
10062;DHT22;5070;52.382;5.270;2023-07-24T15:46:28;24.90;76.60
10062;DHT22;5070;52.382;5.270;2023-07-24T15:48:59;24.80;76.50
10062;DHT22;5070;52.382;5.270;2023-07-24T15:51:29;24.80;76.50
10062;DHT22;5070;52.382;5.270;2023-07-24T15:53:59;24.80;76.30
10062;DHT22;5070;52.382;5.270;2023-07-24T15:56:27;24.80;76.00